sensor_id;sensor_type;location;lat;lon;timestamp;P1;durP1;ratioP1;P2;durP2;ratioP2
37067;SDS011;22982;42.848;25.468;2023-02-07T07:32:19;15.73;;;10.27;;
37067;SDS011;22982;42.848;25.468;2023-02-07T07:37:35;60.28;;;28.13;;
37067;SDS011;22982;42.848;25.468;2023-02-07T07:42:37;14.55;;;10.13;;
37067;SDS011;22982;42.848;25.468;2023-02-07T07:47:52;12.15;;;8.07;;
37067;SDS011;22982;42.848;25.468;2023-02-07T07:52:55;12.68;;;8.27;;
37067;SDS011;22982;42.848;25.468;2023-02-07T07:57:57;14.98;;;9.85;;
37067;SDS011;22982;42.848;25.468;2023-02-07T08:03:00;13.82;;;9.27;;
37067;SDS011;22982;42.848;25.468;2023-02-07T08:08:02;11.85;;;7.93;;
37067;SDS011;22982;42.848;25.468;2023-02-07T08:13:04;14.88;;;9.65;;
37067;SDS011;22982;42.848;25.468;2023-02-07T08:18:07;11.52;;;7.38;;
37067;SDS011;22982;42.848;25.468;2023-02-07T08:23:09;10.57;;;7.93;;
37067;SDS011;22982;42.848;25.468;2023-02-07T08:28:12;15.32;;;10.15;;
37067;SDS011;22982;42.848;25.468;2023-02-07T08:33:15;13.95;;;8.23;;
37067;SDS011;22982;42.848;25.468;2023-02-07T08:38:18;13.95;;;9.70;;
37067;SDS011;22982;42.848;25.468;2023-02-07T08:43:20;11.88;;;7.07;;
37067;SDS011;22982;42.848;25.468;2023-02-07T08:48:22;11.82;;;7.82;;
37067;SDS011;22982;42.848;25.468;2023-02-07T08:53:25;11.25;;;7.60;;
37067;SDS011;22982;42.848;25.468;2023-02-07T08:58:28;12.38;;;8.30;;
37067;SDS011;22982;42.848;25.468;2023-02-07T09:03:32;13.68;;;9.95;;
37067;SDS011;22982;42.848;25.468;2023-02-07T09:08:34;15.93;;;9.40;;
37067;SDS011;22982;42.848;25.468;2023-02-07T09:13:36;89.47;;;55.20;;
37067;SDS011;22982;42.848;25.468;2023-02-07T09:18:38;77.72;;;43.38;;
37067;SDS011;22982;42.848;25.468;2023-02-07T09:23:40;74.43;;;34.63;;
37067;SDS011;22982;42.848;25.468;2023-02-07T09:28:43;120.28;;;59.78;;
37067;SDS011;22982;42.848;25.468;2023-02-07T09:33:45;144.23;;;71.25;;
37067;SDS011;22982;42.848;25.468;2023-02-07T09:38:47;70.72;;;33.92;;
37067;SDS011;22982;42.848;25.468;2023-02-07T09:49:22;18.58;;;11.55;;
37067;SDS011;22982;42.848;25.468;2023-02-07T09:59:47;14.95;;;9.25;;
37067;SDS011;22982;42.848;25.468;2023-02-07T10:04:54;36.67;;;18.02;;
37067;SDS011;22982;42.848;25.468;2023-02-07T10:10:01;27.00;;;15.07;;
37067;SDS011;22982;42.848;25.468;2023-02-07T10:15:08;35.65;;;19.00;;
37067;SDS011;22982;42.848;25.468;2023-02-07T10:25:43;30.80;;;16.30;;
37067;SDS011;22982;42.848;25.468;2023-02-07T10:31:02;28.98;;;12.13;;
37067;SDS011;22982;42.848;25.468;2023-02-07T10:36:13;22.85;;;12.88;;
37067;SDS011;22982;42.848;25.468;2023-02-07T10:46:36;27.00;;;16.52;;
37067;SDS011;22982;42.848;25.468;2023-02-07T10:51:41;22.70;;;14.13;;
37067;SDS011;22982;42.848;25.468;2023-02-07T10:56:49;29.20;;;17.67;;
37067;SDS011;22982;42.848;25.468;2023-02-07T11:01:55;23.00;;;14.43;;
37067;SDS011;22982;42.848;25.468;2023-02-07T11:07:02;25.20;;;13.77;;
37067;SDS011;22982;42.848;25.468;2023-02-07T11:12:19;18.02;;;10.50;;
37067;SDS011;22982;42.848;25.468;2023-02-07T11:17:22;36.40;;;18.17;;
37067;SDS011;22982;42.848;25.468;2023-02-07T11:22:25;18.80;;;10.45;;
37067;SDS011;22982;42.848;25.468;2023-02-07T11:27:34;19.55;;;11.65;;
37067;SDS011;22982;42.848;25.468;2023-02-07T11:32:39;19.10;;;11.65;;
37067;SDS011;22982;42.848;25.468;2023-02-07T11:37:46;21.52;;;12.68;;
37067;SDS011;22982;42.848;25.468;2023-02-07T11:43:23;20.02;;;11.93;;
37067;SDS011;22982;42.848;25.468;2023-02-07T11:48:21;18.40;;;10.87;;
37067;SDS011;22982;42.848;25.468;2023-02-07T11:53:46;26.13;;;14.55;;
37067;SDS011;22982;42.848;25.468;2023-02-07T11:58:53;25.88;;;14.40;;
37067;SDS011;22982;42.848;25.468;2023-02-07T12:03:59;36.75;;;18.13;;
37067;SDS011;22982;42.848;25.468;2023-02-07T12:09:23;26.63;;;13.45;;
37067;SDS011;22982;42.848;25.468;2023-02-07T12:14:40;50.40;;;26.60;;
37067;SDS011;22982;42.848;25.468;2023-02-07T12:19:52;31.33;;;16.75;;
37067;SDS011;22982;42.848;25.468;2023-02-07T12:25:04;26.40;;;15.43;;
37067;SDS011;22982;42.848;25.468;2023-02-07T12:35:56;27.15;;;14.45;;
37067;SDS011;22982;42.848;25.468;2023-02-07T12:41:09;38.50;;;21.30;;
37067;SDS011;22982;42.848;25.468;2023-02-07T12:51:38;22.27;;;14.10;;
37067;SDS011;22982;42.848;25.468;2023-02-07T13:23:00;21.48;;;13.77;;
37067;SDS011;22982;42.848;25.468;2023-02-07T13:28:05;19.23;;;12.05;;
37067;SDS011;22982;42.848;25.468;2023-02-07T13:33:23;16.70;;;10.50;;
37067;SDS011;22982;42.848;25.468;2023-02-07T13:44:03;111.03;;;67.47;;
37067;SDS011;22982;42.848;25.468;2023-02-07T13:59:42;17.27;;;11.57;;
37067;SDS011;22982;42.848;25.468;2023-02-07T14:05:20;17.23;;;11.10;;
37067;SDS011;22982;42.848;25.468;2023-02-07T14:15:56;20.15;;;14.10;;
37067;SDS011;22982;42.848;25.468;2023-02-07T14:21:44;34.58;;;22.63;;
37067;SDS011;22982;42.848;25.468;2023-02-07T14:31:39;31.23;;;19.05;;
37067;SDS011;22982;42.848;25.468;2023-02-07T14:36:49;23.15;;;16.45;;
37067;SDS011;22982;42.848;25.468;2023-02-07T14:42:00;24.52;;;15.95;;
37067;SDS011;22982;42.848;25.468;2023-02-07T14:47:18;24.55;;;13.93;;
37067;SDS011;22982;42.848;25.468;2023-02-07T14:52:27;32.47;;;17.30;;
37067;SDS011;22982;42.848;25.468;2023-02-07T15:13:05;36.08;;;21.75;;
37067;SDS011;22982;42.848;25.468;2023-02-07T15:18:18;34.03;;;20.80;;
37067;SDS011;22982;42.848;25.468;2023-02-07T15:23:23;53.45;;;31.50;;
37067;SDS011;22982;42.848;25.468;2023-02-07T15:28:28;60.20;;;34.30;;
37067;SDS011;22982;42.848;25.468;2023-02-07T15:33:36;32.35;;;19.02;;
37067;SDS011;22982;42.848;25.468;2023-02-07T15:38:40;58.38;;;36.47;;
37067;SDS011;22982;42.848;25.468;2023-02-07T15:49:23;68.57;;;43.38;;
37067;SDS011;22982;42.848;25.468;2023-02-07T15:54:37;64.28;;;36.72;;
37067;SDS011;22982;42.848;25.468;2023-02-07T15:59:41;65.70;;;37.13;;
37067;SDS011;22982;42.848;25.468;2023-02-07T16:04:44;71.50;;;41.58;;
37067;SDS011;22982;42.848;25.468;2023-02-07T16:09:46;85.70;;;51.28;;
37067;SDS011;22982;42.848;25.468;2023-02-07T16:14:48;72.32;;;44.78;;
37067;SDS011;22982;42.848;25.468;2023-02-07T16:19:51;91.65;;;50.53;;
37067;SDS011;22982;42.848;25.468;2023-02-07T16:24:54;104.40;;;50.35;;
37067;SDS011;22982;42.848;25.468;2023-02-07T16:29:57;147.30;;;68.75;;
37067;SDS011;22982;42.848;25.468;2023-02-07T16:35:01;110.57;;;57.28;;
37067;SDS011;22982;42.848;25.468;2023-02-07T16:40:03;69.10;;;39.30;;
37067;SDS011;22982;42.848;25.468;2023-02-07T16:45:05;65.03;;;37.53;;
37067;SDS011;22982;42.848;25.468;2023-02-07T16:50:33;61.17;;;37.03;;
37067;SDS011;22982;42.848;25.468;2023-02-07T16:55:36;54.67;;;32.63;;
37067;SDS011;22982;42.848;25.468;2023-02-07T17:00:40;90.28;;;51.35;;
37067;SDS011;22982;42.848;25.468;2023-02-07T17:05:42;59.75;;;34.85;;
37067;SDS011;22982;42.848;25.468;2023-02-07T17:10:46;73.35;;;40.78;;
37067;SDS011;22982;42.848;25.468;2023-02-07T17:15:53;73.60;;;40.05;;
37067;SDS011;22982;42.848;25.468;2023-02-07T17:20:55;131.48;;;73.93;;
37067;SDS011;22982;42.848;25.468;2023-02-07T17:25:58;95.07;;;53.25;;
37067;SDS011;22982;42.848;25.468;2023-02-07T17:31:00;82.13;;;47.13;;
37067;SDS011;22982;42.848;25.468;2023-02-07T17:36:03;71.78;;;41.67;;
37067;SDS011;22982;42.848;25.468;2023-02-07T17:41:05;74.75;;;42.55;;
37067;SDS011;22982;42.848;25.468;2023-02-07T17:46:12;71.47;;;40.53;;
37067;SDS011;22982;42.848;25.468;2023-02-07T17:51:19;69.22;;;40.78;;
37067;SDS011;22982;42.848;25.468;2023-02-07T17:56:25;66.55;;;38.95;;
37067;SDS011;22982;42.848;25.468;2023-02-07T18:01:29;61.15;;;36.53;;
37067;SDS011;22982;42.848;25.468;2023-02-07T18:06:33;60.78;;;34.95;;
37067;SDS011;22982;42.848;25.468;2023-02-07T18:11:35;58.15;;;32.53;;
37067;SDS011;22982;42.848;25.468;2023-02-07T18:16:37;46.92;;;27.52;;
37067;SDS011;22982;42.848;25.468;2023-02-07T18:21:40;34.28;;;20.73;;
37067;SDS011;22982;42.848;25.468;2023-02-07T18:26:42;37.63;;;22.08;;
37067;SDS011;22982;42.848;25.468;2023-02-07T18:31:47;24.90;;;14.60;;
37067;SDS011;22982;42.848;25.468;2023-02-07T18:36:49;41.75;;;24.05;;
37067;SDS011;22982;42.848;25.468;2023-02-07T18:41:51;35.15;;;21.33;;
37067;SDS011;22982;42.848;25.468;2023-02-07T18:46:54;44.83;;;25.77;;
37067;SDS011;22982;42.848;25.468;2023-02-07T18:51:57;64.38;;;35.67;;
37067;SDS011;22982;42.848;25.468;2023-02-07T18:56:59;62.45;;;32.17;;
37067;SDS011;22982;42.848;25.468;2023-02-07T19:02:02;57.20;;;31.52;;
37067;SDS011;22982;42.848;25.468;2023-02-07T19:07:04;50.60;;;27.88;;
37067;SDS011;22982;42.848;25.468;2023-02-07T19:12:07;52.75;;;30.73;;
37067;SDS011;22982;42.848;25.468;2023-02-07T19:17:11;51.63;;;29.33;;
37067;SDS011;22982;42.848;25.468;2023-02-07T19:22:14;52.67;;;30.13;;
37067;SDS011;22982;42.848;25.468;2023-02-07T19:27:34;56.27;;;32.00;;
37067;SDS011;22982;42.848;25.468;2023-02-07T19:32:36;40.78;;;22.23;;
37067;SDS011;22982;42.848;25.468;2023-02-07T19:37:38;41.63;;;22.83;;
37067;SDS011;22982;42.848;25.468;2023-02-07T19:42:41;53.08;;;28.23;;
37067;SDS011;22982;42.848;25.468;2023-02-07T19:47:43;44.58;;;23.15;;
37067;SDS011;22982;42.848;25.468;2023-02-07T19:52:45;67.50;;;36.92;;
37067;SDS011;22982;42.848;25.468;2023-02-07T19:57:48;73.88;;;36.60;;
37067;SDS011;22982;42.848;25.468;2023-02-07T20:02:50;63.58;;;34.00;;
37067;SDS011;22982;42.848;25.468;2023-02-07T20:07:52;75.60;;;37.75;;
37067;SDS011;22982;42.848;25.468;2023-02-07T20:12:55;109.63;;;50.30;;
37067;SDS011;22982;42.848;25.468;2023-02-07T20:17:57;61.85;;;31.40;;
37067;SDS011;22982;42.848;25.468;2023-02-07T20:22:59;59.92;;;30.55;;
37067;SDS011;22982;42.848;25.468;2023-02-07T20:28:02;78.07;;;38.35;;
37067;SDS011;22982;42.848;25.468;2023-02-07T20:33:05;69.25;;;35.63;;
37067;SDS011;22982;42.848;25.468;2023-02-07T20:38:07;67.25;;;38.22;;
37067;SDS011;22982;42.848;25.468;2023-02-07T20:43:09;55.85;;;28.08;;
37067;SDS011;22982;42.848;25.468;2023-02-07T20:48:12;48.72;;;25.40;;
37067;SDS011;22982;42.848;25.468;2023-02-07T20:53:16;59.80;;;31.25;;
37067;SDS011;22982;42.848;25.468;2023-02-07T20:58:24;76.35;;;37.15;;
37067;SDS011;22982;42.848;25.468;2023-02-07T21:03:30;56.88;;;31.27;;
37067;SDS011;22982;42.848;25.468;2023-02-07T21:08:37;54.28;;;30.67;;
37067;SDS011;22982;42.848;25.468;2023-02-07T21:13:40;54.78;;;32.10;;
37067;SDS011;22982;42.848;25.468;2023-02-07T21:18:51;59.80;;;32.10;;
37067;SDS011;22982;42.848;25.468;2023-02-07T21:23:54;54.40;;;30.35;;
37067;SDS011;22982;42.848;25.468;2023-02-07T21:28:57;49.65;;;28.33;;
37067;SDS011;22982;42.848;25.468;2023-02-07T21:34:02;55.72;;;28.75;;
37067;SDS011;22982;42.848;25.468;2023-02-07T21:39:09;41.70;;;24.70;;
37067;SDS011;22982;42.848;25.468;2023-02-07T21:44:13;48.35;;;26.65;;
37067;SDS011;22982;42.848;25.468;2023-02-07T21:49:16;47.80;;;25.52;;
37067;SDS011;22982;42.848;25.468;2023-02-07T21:54:21;47.10;;;25.00;;
37067;SDS011;22982;42.848;25.468;2023-02-07T21:59:24;47.10;;;25.00;;
37067;SDS011;22982;42.848;25.468;2023-02-07T22:04:27;42.28;;;23.35;;
37067;SDS011;22982;42.848;25.468;2023-02-07T22:09:30;45.15;;;23.95;;
37067;SDS011;22982;42.848;25.468;2023-02-07T22:14:33;41.35;;;21.85;;
37067;SDS011;22982;42.848;25.468;2023-02-07T22:19:35;45.08;;;24.67;;
37067;SDS011;22982;42.848;25.468;2023-02-07T22:24:37;44.28;;;22.90;;
37067;SDS011;22982;42.848;25.468;2023-02-07T22:29:40;43.78;;;23.98;;
37067;SDS011;22982;42.848;25.468;2023-02-07T22:34:42;48.55;;;24.50;;
37067;SDS011;22982;42.848;25.468;2023-02-07T22:39:47;51.30;;;25.20;;
37067;SDS011;22982;42.848;25.468;2023-02-07T22:44:50;41.42;;;21.65;;
37067;SDS011;22982;42.848;25.468;2023-02-07T22:49:52;45.38;;;23.88;;
37067;SDS011;22982;42.848;25.468;2023-02-07T22:54:55;38.35;;;20.17;;
37067;SDS011;22982;42.848;25.468;2023-02-07T22:59:57;45.47;;;21.08;;
37067;SDS011;22982;42.848;25.468;2023-02-07T23:05:02;37.92;;;19.67;;
37067;SDS011;22982;42.848;25.468;2023-02-07T23:10:05;38.05;;;19.55;;
37067;SDS011;22982;42.848;25.468;2023-02-07T23:15:09;34.88;;;17.48;;
37067;SDS011;22982;42.848;25.468;2023-02-07T23:20:12;36.05;;;17.70;;
37067;SDS011;22982;42.848;25.468;2023-02-07T23:25:14;44.08;;;23.17;;
37067;SDS011;22982;42.848;25.468;2023-02-07T23:30:16;38.70;;;20.55;;
37067;SDS011;22982;42.848;25.468;2023-02-07T23:35:19;36.58;;;19.05;;
37067;SDS011;22982;42.848;25.468;2023-02-07T23:40:21;43.72;;;20.40;;
37067;SDS011;22982;42.848;25.468;2023-02-07T23:45:23;28.48;;;16.25;;
37067;SDS011;22982;42.848;25.468;2023-02-07T23:50:26;33.08;;;17.92;;
37067;SDS011;22982;42.848;25.468;2023-02-07T23:55:30;33.08;;;16.35;;
